Time;durP1;ratioP1;P1;durP2;ratioP2;P2;SDS_P1;SDS_P2;PMS_P1;PMS_P2;Temp;Humidity;BMP_temperature;BMP_pressure;BME280_temperature;BME280_humidity;BME280_pressure;Samples;Min_cycle;Max_cycle;Signal;HPM_P1;HPM_P2
2021/12/10 00:00:53;;;;;;;8.67;6.47;;;5.30;99.90;;;;;;5073306;28;20193;-61
2021/12/10 00:03:25;;;;;;;15.30;6.60;;;5.30;99.90;;;;;;5070833;28;20234;-60
2021/12/10 00:06:05;;;;;;;6.67;5.60;;;5.30;99.90;;;;;;5073446;28;20255;-61
2021/12/10 00:08:34;;;;;;;16.50;6.80;;;5.20;99.90;;;;;;5087998;28;20621;-61
2021/12/10 00:11:03;;;;;;;7.77;5.80;;;5.20;99.90;;;;;;5092208;28;20215;-62
2021/12/10 00:13:29;;;;;;;6.77;6.03;;;5.30;99.90;;;;;;5092569;28;20173;-60
2021/12/10 00:15:56;;;;;;;7.50;5.13;;;5.40;99.90;;;;;;5072126;28;20204;-61
2021/12/10 00:18:29;;;;;;;10.53;6.03;;;5.40;99.90;;;;;;5064712;28;20185;-60
2021/12/10 00:20:58;;;;;;;6.80;5.40;;;5.40;99.90;;;;;;5070105;28;20573;-61
2021/12/10 00:23:28;;;;;;;7.93;5.47;;;5.30;99.90;;;;;;5080606;28;20193;-63
2021/12/10 00:25:54;;;;;;;8.93;5.23;;;5.30;99.90;;;;;;5076173;28;20185;-61
2021/12/10 00:28:31;;;;;;;12.00;5.20;;;5.30;99.90;;;;;;5071154;28;20207;-61
2021/12/10 00:31:30;;;;;;;7.63;5.10;;;5.30;99.90;;;;;;5074989;28;20589;-61
2021/12/10 00:34:12;;;;;;;10.33;5.20;;;5.30;99.90;;;;;;5078278;28;20264;-60
2021/12/10 00:36:38;;;;;;;7.73;4.53;;;5.30;99.90;;;;;;5073914;28;20257;-61
2021/12/10 00:39:26;;;;;;;9.90;4.03;;;5.30;99.90;;;;;;5074295;28;20538;-60
2021/12/10 00:41:53;;;;;;;8.23;4.40;;;5.30;99.90;;;;;;5092344;28;20180;-61
2021/12/10 00:44:19;;;;;;;11.27;5.00;;;5.30;99.90;;;;;;5057075;28;20185;-61
2021/12/10 00:46:45;;;;;;;5.33;4.30;;;5.30;99.90;;;;;;5069668;28;20201;-60
2021/12/10 00:49:11;;;;;;;9.73;4.97;;;5.20;99.90;;;;;;5062294;28;20181;-60
2021/12/10 00:51:38;;;;;;;6.37;4.43;;;5.20;99.90;;;;;;5077249;28;20250;-61
2021/12/10 00:54:06;;;;;;;6.33;4.77;;;5.30;99.90;;;;;;5095889;28;20173;-61
2021/12/10 00:56:32;;;;;;;9.37;5.00;;;5.30;99.90;;;;;;5090530;28;20201;-60
2021/12/10 00:58:58;;;;;;;8.30;4.83;;;5.40;99.90;;;;;;5076627;28;20189;-61
2021/12/10 01:01:27;;;;;;;9.70;4.67;;;5.50;99.90;;;;;;5076498;28;20192;-60
2021/12/10 01:04:25;;;;;;;7.90;4.50;;;5.40;99.90;;;;;;5058452;28;20188;-60
2021/12/10 01:06:52;;;;;;;9.67;4.90;;;5.40;99.90;;;;;;5073546;28;20204;-61
2021/12/10 01:09:30;;;;;;;3.97;3.17;;;5.50;99.90;;;;;;5077208;28;20200;-62
2021/12/10 01:12:03;;;;;;;5.77;5.00;;;5.70;99.90;;;;;;5077547;28;20322;-61
2021/12/10 01:14:50;;;;;;;7.80;4.17;;;5.70;99.90;;;;;;5076641;28;20178;-61
2021/12/10 01:25:37;;;;;;;5.47;4.03;;;5.70;99.90;;;;;;5085250;28;20556;-61
2021/12/10 01:28:05;;;;;;;6.30;3.60;;;5.70;99.90;;;;;;5095016;28;20192;-61
2021/12/10 01:30:34;;;;;;;4.67;3.10;;;5.70;99.90;;;;;;5074128;28;20280;-62
2021/12/10 01:33:07;;;;;;;6.60;4.00;;;5.80;99.90;;;;;;5093780;28;20206;-60
2021/12/10 01:35:41;;;;;;;8.30;3.00;;;5.80;99.90;;;;;;5063298;28;20637;-60
2021/12/10 01:38:09;;;;;;;4.27;3.53;;;5.80;99.90;;;;;;5081456;28;20461;-60
2021/12/10 01:40:37;;;;;;;6.80;3.97;;;5.80;99.90;;;;;;5078458;28;20614;-60
2021/12/10 01:43:07;;;;;;;4.37;3.03;;;5.80;99.90;;;;;;5093712;28;20169;-60
2021/12/10 01:45:46;;;;;;;4.43;3.63;;;5.70;99.90;;;;;;5064169;28;20176;-60
2021/12/10 01:48:17;;;;;;;8.60;3.17;;;5.70;99.90;;;;;;5094826;28;20184;-60
2021/12/10 01:50:44;;;;;;;9.37;3.63;;;5.80;99.90;;;;;;5094351;28;20189;-60
2021/12/10 01:53:13;;;;;;;6.53;3.53;;;5.80;99.90;;;;;;5076538;28;20226;-60
2021/12/10 01:55:42;;;;;;;4.97;2.80;;;5.70;99.90;;;;;;5075890;28;20638;-60
2021/12/10 01:58:10;;;;;;;7.47;2.93;;;5.70;99.90;;;;;;5094884;28;20188;-60
2021/12/10 02:00:40;;;;;;;4.70;2.43;;;5.70;99.90;;;;;;5085456;28;20189;-61
2021/12/10 02:03:06;;;;;;;2.97;2.67;;;5.70;99.90;;;;;;5080512;28;20184;-60
2021/12/10 02:05:32;;;;;;;3.33;2.60;;;5.70;99.90;;;;;;5085375;28;20208;-60
2021/12/10 02:07:58;;;;;;;6.33;2.47;;;5.70;99.90;;;;;;5056950;28;20181;-60
2021/12/10 02:10:26;;;;;;;7.43;2.80;;;5.70;99.90;;;;;;5078894;28;20195;-60
2021/12/10 02:12:53;;;;;;;2.47;2.27;;;5.80;99.90;;;;;;5094255;28;20184;-60
2021/12/10 02:15:21;;;;;;;4.77;2.30;;;5.90;99.90;;;;;;5094253;28;20249;-60
2021/12/10 02:17:50;;;;;;;5.77;2.13;;;5.90;99.90;;;;;;5076597;28;20285;-60
2021/12/10 02:20:44;;;;;;;8.60;2.33;;;5.90;99.90;;;;;;5072654;28;20189;-60
2021/12/10 02:23:10;;;;;;;5.00;2.27;;;5.90;99.90;;;;;;5059446;28;20658;-60
2021/12/10 02:25:37;;;;;;;6.47;2.83;;;5.80;99.90;;;;;;5066817;28;20189;-59
2021/12/10 02:28:08;;;;;;;3.60;2.00;;;5.90;99.90;;;;;;5088061;28;20653;-60
2021/12/10 02:30:33;;;;;;;9.10;4.83;;;6.00;99.90;;;;;;5076972;28;20189;-59
2021/12/10 02:33:00;;;;;;;1.83;1.70;;;5.90;99.90;;;;;;5057343;28;20173;-60
2021/12/10 02:35:28;;;;;;;2.70;1.80;;;5.90;99.90;;;;;;5074143;28;20250;-60
2021/12/10 02:37:54;;;;;;;4.07;1.53;;;6.00;99.90;;;;;;5092357;28;20225;-60
2021/12/10 02:40:22;;;;;;;2.47;1.60;;;5.90;99.90;;;;;;5085289;28;20186;-61
2021/12/10 02:42:50;;;;;;;2.10;2.00;;;5.90;99.90;;;;;;5093854;28;20295;-60
2021/12/10 02:45:20;;;;;;;6.80;1.93;;;6.00;99.90;;;;;;5094020;28;20276;-60
2021/12/10 02:47:48;;;;;;;3.33;1.53;;;6.00;99.90;;;;;;5093618;28;20285;-60
2021/12/10 02:50:17;;;;;;;7.73;1.73;;;6.00;99.90;;;;;;5074956;28;20195;-60
2021/12/10 02:52:43;;;;;;;2.17;1.33;;;6.00;99.90;;;;;;5091806;28;20263;-61
2021/12/10 02:55:10;;;;;;;2.00;1.33;;;6.10;99.90;;;;;;5085383;28;20645;-60
2021/12/10 02:57:38;;;;;;;4.53;1.43;;;6.10;99.90;;;;;;5092724;28;20691;-62
2021/12/10 03:00:10;;;;;;;3.73;1.23;;;5.90;99.90;;;;;;5067653;28;20544;-60
2021/12/10 03:02:36;;;;;;;2.70;1.40;;;5.80;99.90;;;;;;5084002;28;20183;-60
2021/12/10 03:05:03;;;;;;;4.53;2.03;;;5.80;99.90;;;;;;5058156;28;20621;-60
2021/12/10 03:07:30;;;;;;;1.30;1.27;;;5.80;99.90;;;;;;5071859;28;20244;-60
2021/12/10 03:09:56;;;;;;;1.70;1.60;;;5.80;99.90;;;;;;5075265;28;20228;-61
2021/12/10 03:12:23;;;;;;;1.50;1.27;;;5.80;99.90;;;;;;5092850;28;20594;-60
2021/12/10 03:14:52;;;;;;;1.43;1.33;;;5.70;99.90;;;;;;5074003;28;20665;-61
2021/12/10 03:17:24;;;;;;;1.43;1.30;;;5.70;99.90;;;;;;5073609;28;20201;-61
2021/12/10 03:19:50;;;;;;;4.13;1.27;;;5.80;99.90;;;;;;5077561;28;20188;-61
2021/12/10 03:22:16;;;;;;;2.70;1.00;;;5.70;99.90;;;;;;5071570;28;20228;-60
2021/12/10 03:24:43;;;;;;;1.20;1.03;;;5.70;99.90;;;;;;5073946;28;20226;-62
2021/12/10 03:27:11;;;;;;;1.50;1.20;;;5.60;99.90;;;;;;5093089;28;20192;-61
2021/12/10 03:29:39;;;;;;;1.90;0.97;;;5.60;99.90;;;;;;5074465;28;20212;-61
2021/12/10 03:32:09;;;;;;;2.07;1.00;;;5.50;99.90;;;;;;5092916;28;20183;-61
2021/12/10 03:34:35;;;;;;;2.50;1.60;;;5.50;99.90;;;;;;5093039;28;20183;-61
2021/12/10 03:37:02;;;;;;;1.93;1.10;;;5.40;99.90;;;;;;5092890;28;20227;-61
2021/12/10 03:39:28;;;;;;;0.80;0.80;;;5.40;99.90;;;;;;5074897;28;20188;-61
2021/12/10 03:41:57;;;;;;;1.00;1.00;;;5.50;99.90;;;;;;5074450;28;20200;-61
2021/12/10 03:44:22;;;;;;;0.80;0.80;;;5.50;99.90;;;;;;5087023;28;20178;-60
2021/12/10 03:46:50;;;;;;;1.90;1.00;;;5.60;99.90;;;;;;5074174;28;20173;-60
2021/12/10 03:49:16;;;;;;;1.33;1.20;;;5.50;99.90;;;;;;5092781;28;20264;-60
2021/12/10 03:51:43;;;;;;;1.10;1.10;;;5.30;99.90;;;;;;5073169;28;20569;-60
2021/12/10 03:54:10;;;;;;;3.93;1.20;;;5.40;99.90;;;;;;5090097;28;20183;-60
2021/12/10 03:56:37;;;;;;;1.40;1.40;;;5.40;99.90;;;;;;5074690;28;20208;-60
2021/12/10 03:59:06;;;;;;;2.30;1.10;;;5.40;99.90;;;;;;5073988;28;20657;-61
2021/12/10 04:01:38;;;;;;;2.63;1.93;;;5.50;99.90;;;;;;5073789;28;20180;-60
2021/12/10 04:04:07;;;;;;;1.30;1.30;;;5.50;99.90;;;;;;5078625;28;20180;-60
2021/12/10 04:06:33;;;;;;;2.03;1.20;;;5.50;99.90;;;;;;5083463;28;20189;-61
2021/12/10 04:09:01;;;;;;;1.10;1.00;;;5.40;99.90;;;;;;5091842;28;20254;-60
2021/12/10 04:11:27;;;;;;;2.23;1.33;;;5.50;99.90;;;;;;5074890;28;20181;-60
2021/12/10 04:13:53;;;;;;;3.53;1.50;;;5.50;99.90;;;;;;5081990;28;20512;-61
2021/12/10 04:16:21;;;;;;;1.50;1.20;;;5.40;99.90;;;;;;5082476;28;20208;-60
2021/12/10 04:18:50;;;;;;;1.60;1.50;;;5.30;99.90;;;;;;5070949;28;20197;-60
2021/12/10 04:21:17;;;;;;;1.60;1.10;;;5.30;99.90;;;;;;5068064;28;20176;-60
2021/12/10 04:23:43;;;;;;;1.03;1.03;;;5.20;99.90;;;;;;5083789;28;20181;-61
2021/12/10 04:26:11;;;;;;;0.90;0.90;;;5.20;99.90;;;;;;5062381;28;20196;-60
2021/12/10 04:28:37;;;;;;;1.30;1.20;;;5.30;99.90;;;;;;5078395;28;20192;-60
2021/12/10 04:31:03;;;;;;;2.70;1.03;;;5.20;99.90;;;;;;5062228;28;20196;-62
2021/12/10 04:33:29;;;;;;;2.87;1.23;;;5.20;99.90;;;;;;5078595;28;20257;-62
2021/12/10 04:35:57;;;;;;;1.53;1.20;;;5.20;99.90;;;;;;5078572;28;20184;-61
2021/12/10 04:38:25;;;;;;;1.03;1.03;;;5.20;99.90;;;;;;5095897;28;20722;-61
2021/12/10 04:40:54;;;;;;;5.17;1.33;;;5.20;99.90;;;;;;5096691;28;20172;-61
2021/12/10 04:43:22;;;;;;;3.73;1.20;;;5.20;99.90;;;;;;5077361;28;20623;-60
2021/12/10 04:45:51;;;;;;;3.43;1.00;;;5.30;99.90;;;;;;5064847;28;20188;-60
2021/12/10 04:48:16;;;;;;;1.43;1.43;;;5.30;99.90;;;;;;5095987;28;20184;-60
2021/12/10 04:50:42;;;;;;;1.20;1.10;;;5.20;99.90;;;;;;5090465;28;20231;-60
2021/12/10 04:53:09;;;;;;;3.63;1.00;;;5.30;99.90;;;;;;5069953;28;20189;-61
2021/12/10 04:55:35;;;;;;;1.00;1.00;;;5.20;99.90;;;;;;5086049;28;20189;-61
2021/12/10 04:58:01;;;;;;;1.73;1.30;;;5.20;99.90;;;;;;5069124;28;20317;-61
2021/12/10 05:00:33;;;;;;;2.37;1.60;;;5.10;99.90;;;;;;5095853;28;20539;-61
2021/12/10 05:03:00;;;;;;;1.00;1.00;;;5.10;99.90;;;;;;5084944;28;20687;-61
2021/12/10 05:05:27;;;;;;;1.80;0.80;;;5.20;99.90;;;;;;5048715;28;20196;-60
2021/12/10 05:07:54;;;;;;;3.93;1.00;;;5.10;99.90;;;;;;5089096;28;20200;-60
2021/12/10 05:10:21;;;;;;;3.30;1.53;;;5.20;99.90;;;;;;5057313;28;20197;-60
2021/12/10 05:12:47;;;;;;;1.23;1.10;;;5.20;99.90;;;;;;5069776;28;20192;-60
2021/12/10 05:15:20;;;;;;;0.90;0.90;;;5.10;99.90;;;;;;5095785;28;20181;-60
2021/12/10 05:17:48;;;;;;;2.20;1.50;;;5.10;99.90;;;;;;5095683;28;20549;-61
2021/12/10 05:20:25;;;;;;;1.20;1.20;;;5.20;99.90;;;;;;5063094;28;20637;-60
2021/12/10 05:22:51;;;;;;;1.20;1.20;;;5.10;99.90;;;;;;5095216;28;20184;-60
2021/12/10 05:25:18;;;;;;;2.10;1.13;;;5.30;99.90;;;;;;5073901;28;20174;-62
2021/12/10 05:27:44;;;;;;;1.50;1.50;;;5.20;99.90;;;;;;5073472;28;20193;-60
2021/12/10 05:30:14;;;;;;;1.67;1.43;;;5.10;99.90;;;;;;5077311;28;20196;-61
2021/12/10 05:32:40;;;;;;;1.33;1.23;;;5.20;99.90;;;;;;5095339;28;20177;-60
2021/12/10 05:35:07;;;;;;;1.23;1.20;;;5.10;99.90;;;;;;5050141;28;20472;-60
2021/12/10 05:37:33;;;;;;;1.07;1.07;;;5.00;99.90;;;;;;5041343;28;20263;-60
2021/12/10 05:39:59;;;;;;;1.87;1.77;;;5.10;99.90;;;;;;5075821;28;20188;-61
2021/12/10 05:42:25;;;;;;;4.03;1.33;;;5.20;99.90;;;;;;5062146;28;20185;-60
2021/12/10 05:44:51;;;;;;;1.13;1.13;;;5.20;99.90;;;;;;5094627;28;20196;-61
2021/12/10 05:47:18;;;;;;;0.90;0.90;;;5.20;99.90;;;;;;5066520;28;20193;-61
2021/12/10 05:49:44;;;;;;;4.43;1.27;;;5.10;99.90;;;;;;5075258;28;20184;-60
2021/12/10 05:52:11;;;;;;;1.43;1.30;;;5.10;99.90;;;;;;5077004;28;20192;-60
2021/12/10 05:54:37;;;;;;;1.70;1.50;;;5.10;99.90;;;;;;5094330;28;20576;-60
2021/12/10 05:57:04;;;;;;;2.33;1.20;;;5.10;99.90;;;;;;5094690;28;20250;-60
2021/12/10 05:59:30;;;;;;;2.30;1.50;;;5.10;99.90;;;;;;5094666;28;20181;-60
2021/12/10 06:01:56;;;;;;;2.30;1.50;;;5.10;99.90;;;;;;5093907;28;20177;-61
2021/12/10 06:04:27;;;;;;;1.00;1.00;;;5.20;99.90;;;;;;5091182;28;20208;-61
2021/12/10 06:06:54;;;;;;;1.53;1.43;;;5.20;99.90;;;;;;5085517;28;20185;-61
2021/12/10 06:09:21;;;;;;;1.20;1.20;;;5.20;99.90;;;;;;5094516;28;20282;-61
2021/12/10 06:11:46;;;;;;;1.47;1.33;;;5.10;99.90;;;;;;5075866;28;20189;-61
2021/12/10 06:14:12;;;;;;;1.03;1.03;;;5.10;99.90;;;;;;5076947;28;20458;-62
2021/12/10 06:16:38;;;;;;;5.40;1.23;;;5.00;99.90;;;;;;5043140;28;20291;-61
2021/12/10 06:19:06;;;;;;;2.37;1.13;;;4.90;99.90;;;;;;5061660;28;20693;-61
2021/12/10 06:21:33;;;;;;;2.30;1.20;;;5.00;99.90;;;;;;5074670;28;20273;-61
2021/12/10 06:24:04;;;;;;;1.97;1.60;;;5.00;99.90;;;;;;5074446;28;20231;-61
2021/12/10 06:26:29;;;;;;;2.50;1.23;;;5.00;99.90;;;;;;5074946;28;20188;-61
2021/12/10 06:28:55;;;;;;;2.07;1.20;;;5.00;99.90;;;;;;5069008;28;20180;-61
2021/12/10 06:31:23;;;;;;;1.13;1.13;;;5.10;99.90;;;;;;5094187;28;20188;-61
2021/12/10 06:33:49;;;;;;;1.10;1.10;;;5.00;99.90;;;;;;5093486;28;20192;-61
2021/12/10 06:36:16;;;;;;;1.77;1.67;;;5.00;99.90;;;;;;5075732;28;20208;-61
2021/12/10 06:38:43;;;;;;;1.80;1.30;;;5.00;99.90;;;;;;5094158;28;20188;-61
2021/12/10 06:41:09;;;;;;;3.70;2.47;;;5.00;99.90;;;;;;5093935;28;20177;-61
2021/12/10 06:43:36;;;;;;;1.77;1.67;;;5.00;99.90;;;;;;5071692;28;20557;-61
2021/12/10 06:46:04;;;;;;;2.97;2.03;;;5.00;99.90;;;;;;5076164;28;20176;-61
2021/12/10 06:48:30;;;;;;;2.40;1.37;;;5.10;99.90;;;;;;5093864;28;20172;-62
2021/12/10 06:50:59;;;;;;;2.40;2.23;;;5.20;99.90;;;;;;5083350;28;20264;-61
2021/12/10 06:53:26;;;;;;;1.67;1.57;;;5.10;99.90;;;;;;5073568;28;20552;-61
2021/12/10 06:55:52;;;;;;;2.17;1.83;;;5.10;99.90;;;;;;5084453;28;20587;-61
2021/12/10 06:58:18;;;;;;;1.97;1.87;;;5.10;99.90;;;;;;5093427;28;20184;-61
2021/12/10 07:00:58;;;;;;;8.67;1.57;;;5.10;99.90;;;;;;5075386;28;20234;-61
2021/12/10 07:03:27;;;;;;;1.70;1.60;;;5.20;99.90;;;;;;5074101;28;20191;-62
2021/12/10 07:05:54;;;;;;;1.27;1.27;;;5.10;99.90;;;;;;5073863;28;20238;-61
2021/12/10 07:08:21;;;;;;;1.77;1.67;;;5.10;99.90;;;;;;5079044;28;20637;-61
2021/12/10 07:10:47;;;;;;;2.07;1.40;;;5.00;99.90;;;;;;5086906;28;20677;-62
2021/12/10 07:13:15;;;;;;;5.87;1.53;;;5.00;99.90;;;;;;5055323;28;20280;-61
2021/12/10 07:15:43;;;;;;;6.30;1.37;;;5.00;99.90;;;;;;5055949;28;20537;-61
2021/12/10 07:18:10;;;;;;;1.63;1.63;;;5.00;99.90;;;;;;5073825;28;20217;-61
2021/12/10 07:20:37;;;;;;;1.90;1.57;;;5.00;99.90;;;;;;5073650;28;20181;-61
2021/12/10 07:23:03;;;;;;;1.80;1.70;;;5.00;99.90;;;;;;5073783;28;20192;-61
2021/12/10 07:25:28;;;;;;;1.90;1.67;;;4.70;99.90;;;;;;5090204;28;20188;-61
2021/12/10 07:27:54;;;;;;;3.03;1.87;;;4.70;99.90;;;;;;5092981;28;20261;-61
2021/12/10 07:30:23;;;;;;;1.77;1.67;;;4.60;99.90;;;;;;5084529;28;20550;-61
2021/12/10 07:32:49;;;;;;;1.97;1.83;;;4.70;99.90;;;;;;5063827;28;20262;-61
2021/12/10 07:35:15;;;;;;;1.63;1.53;;;4.60;99.90;;;;;;5093379;28;20196;-61
2021/12/10 07:37:41;;;;;;;2.40;2.03;;;4.70;99.90;;;;;;5093020;28;20212;-61
2021/12/10 07:40:11;;;;;;;3.00;2.07;;;4.80;99.90;;;;;;5074424;28;20188;-62
2021/12/10 07:42:37;;;;;;;2.03;1.67;;;4.70;99.90;;;;;;5092859;28;20184;-61
2021/12/10 07:45:04;;;;;;;4.53;2.27;;;4.70;99.90;;;;;;5089543;28;20189;-61
2021/12/10 07:47:36;;;;;;;2.20;2.03;;;4.70;99.90;;;;;;5074814;28;20177;-61
2021/12/10 07:50:11;;;;;;;1.83;1.73;;;4.70;99.90;;;;;;5074958;28;20612;-61
2021/12/10 07:52:40;;;;;;;3.57;2.00;;;4.60;99.90;;;;;;5074721;28;20661;-61
2021/12/10 07:55:10;;;;;;;1.50;1.40;;;4.60;99.90;;;;;;5092127;28;20223;-61
2021/12/10 07:57:36;;;;;;;2.53;1.60;;;4.70;99.90;;;;;;5093069;28;20287;-60
2021/12/10 08:00:06;;;;;;;2.07;1.97;;;4.50;99.90;;;;;;5062086;28;20729;-61
2021/12/10 08:02:31;;;;;;;4.90;1.90;;;4.40;99.90;;;;;;5092695;28;20657;-61
2021/12/10 08:04:57;;;;;;;1.80;1.70;;;4.30;99.90;;;;;;5080236;28;20267;-60
2021/12/10 08:07:23;;;;;;;1.70;1.60;;;4.30;99.90;;;;;;5095692;28;20261;-62
2021/12/10 08:09:49;;;;;;;2.13;1.97;;;4.30;99.90;;;;;;5094240;28;20208;-62
2021/12/10 08:12:15;;;;;;;2.23;1.73;;;4.20;99.90;;;;;;5063215;28;20564;-61
2021/12/10 08:14:40;;;;;;;4.13;2.20;;;4.10;99.90;;;;;;5094944;28;20211;-62
2021/12/10 08:17:06;;;;;;;1.50;1.40;;;4.00;99.90;;;;;;5073095;28;20669;-61
2021/12/10 08:19:32;;;;;;;2.30;2.20;;;3.70;99.90;;;;;;5075227;28;20215;-62
2021/12/10 08:21:58;;;;;;;2.73;2.30;;;3.60;99.90;;;;;;5075435;28;20184;-63
2021/12/10 08:24:24;;;;;;;2.13;2.03;;;3.60;99.90;;;;;;5060338;28;20301;-62
2021/12/10 08:26:50;;;;;;;2.40;2.20;;;3.50;99.90;;;;;;5093660;28;20215;-63
2021/12/10 08:29:19;;;;;;;2.03;1.97;;;3.50;99.90;;;;;;5073119;28;20642;-62
2021/12/10 08:31:45;;;;;;;6.27;2.60;;;3.50;99.90;;;;;;5076191;28;20222;-62
2021/12/10 08:34:13;;;;;;;1.90;1.80;;;3.60;99.90;;;;;;5091312;28;20263;-62
2021/12/10 08:36:39;;;;;;;3.07;2.30;;;3.70;99.90;;;;;;5076545;28;20212;-64
2021/12/10 08:39:09;;;;;;;2.00;1.90;;;3.70;99.90;;;;;;5092080;28;20549;-60
2021/12/10 08:41:35;;;;;;;4.00;2.20;;;3.70;99.90;;;;;;5091769;28;20192;-62
2021/12/10 08:44:02;;;;;;;3.07;2.80;;;3.80;99.90;;;;;;5075545;28;20176;-63
2021/12/10 08:46:29;;;;;;;2.43;2.23;;;3.70;99.90;;;;;;5073466;28;20284;-60
2021/12/10 08:48:58;;;;;;;2.50;2.30;;;3.80;99.90;;;;;;5085739;28;20237;-62
2021/12/10 08:51:29;;;;;;;3.90;2.20;;;4.00;99.90;;;;;;5095485;28;20188;-66
2021/12/10 08:53:56;;;;;;;2.63;2.43;;;4.10;99.90;;;;;;5092383;28;20285;-62
2021/12/10 08:56:22;;;;;;;2.50;2.30;;;4.20;99.90;;;;;;5077804;28;20208;-62
2021/12/10 08:58:49;;;;;;;1.97;1.87;;;4.30;99.90;;;;;;5091234;28;20193;-60
2021/12/10 09:01:21;;;;;;;4.70;2.57;;;4.40;99.90;;;;;;5087456;28;20264;-61
2021/12/10 09:03:53;;;;;;;2.60;2.40;;;4.40;99.90;;;;;;5086531;28;20199;-62
2021/12/10 09:06:23;;;;;;;2.50;2.30;;;4.40;99.90;;;;;;5071370;28;20537;-61
2021/12/10 09:08:50;;;;;;;4.13;2.33;;;4.30;99.90;;;;;;5094884;28;20200;-62
2021/12/10 09:11:16;;;;;;;4.87;2.33;;;4.30;99.90;;;;;;5083649;28;20180;-63
2021/12/10 09:13:42;;;;;;;4.67;2.13;;;4.20;99.90;;;;;;5076363;28;20240;-62
2021/12/10 09:16:21;;;;;;;2.97;2.77;;;4.20;99.90;;;;;;5060975;28;20246;-62
2021/12/10 09:18:48;;;;;;;2.43;2.30;;;4.10;99.90;;;;;;5088594;28;20184;-61
2021/12/10 09:21:14;;;;;;;2.93;2.63;;;4.10;99.90;;;;;;5077008;28;20208;-61
2021/12/10 09:23:41;;;;;;;3.43;2.37;;;4.10;99.90;;;;;;5094927;28;20185;-61
2021/12/10 09:26:12;;;;;;;3.40;2.20;;;4.00;99.90;;;;;;5076957;28;20185;-60
2021/12/10 09:28:40;;;;;;;3.13;2.70;;;4.10;99.90;;;;;;5094874;28;20230;-61
2021/12/10 09:31:08;;;;;;;2.67;2.47;;;4.10;99.90;;;;;;5076352;28;20569;-60
2021/12/10 09:33:34;;;;;;;5.03;3.33;;;4.20;99.90;;;;;;5095281;28;20176;-61
2021/12/10 09:36:00;;;;;;;4.80;2.77;;;4.30;99.90;;;;;;5059511;28;20187;-60
2021/12/10 09:38:27;;;;;;;2.20;2.10;;;4.30;99.90;;;;;;5057030;28;20288;-61
2021/12/10 09:41:00;;;;;;;2.50;2.30;;;4.40;99.90;;;;;;5089410;28;20212;-61
2021/12/10 09:43:26;;;;;;;3.43;2.60;;;4.40;99.90;;;;;;5088395;28;20228;-60
2021/12/10 09:45:53;;;;;;;3.23;2.93;;;4.60;99.90;;;;;;5074455;28;20685;-61
2021/12/10 09:48:21;;;;;;;3.17;2.70;;;4.60;99.90;;;;;;5065230;28;20191;-60
2021/12/10 09:50:55;;;;;;;5.23;2.80;;;4.60;99.90;;;;;;5081723;28;20177;-65
2021/12/10 09:53:23;;;;;;;4.33;3.57;;;4.60;99.90;;;;;;5073302;28;20537;-65
2021/12/10 09:55:49;;;;;;;5.27;3.00;;;4.30;99.90;;;;;;5094613;28;20173;-65
2021/12/10 09:58:17;;;;;;;5.90;3.13;;;4.20;99.90;;;;;;5094537;28;20303;-65
2021/12/10 10:00:49;;;;;;;4.60;3.17;;;4.30;99.90;;;;;;5059512;28;20613;-66
2021/12/10 10:03:19;;;;;;;4.07;3.30;;;4.40;99.90;;;;;;5059776;28;20189;-65
2021/12/10 10:05:46;;;;;;;3.67;3.37;;;4.30;99.90;;;;;;5095242;28;20629;-65
2021/12/10 10:08:25;;;;;;;3.10;2.87;;;4.50;99.90;;;;;;5075906;28;20599;-65
2021/12/10 10:10:56;;;;;;;2.90;2.60;;;4.60;99.90;;;;;;5057140;28;20260;-66
2021/12/10 10:13:26;;;;;;;4.70;3.53;;;4.60;99.90;;;;;;5092110;28;20192;-66
2021/12/10 10:15:56;;;;;;;4.90;3.67;;;4.50;99.90;;;;;;5093928;28;20181;-60
2021/12/10 10:18:22;;;;;;;6.23;3.07;;;4.50;99.90;;;;;;5079918;28;20644;-60
2021/12/10 10:20:52;;;;;;;4.27;3.33;;;4.40;99.90;;;;;;5086044;28;20177;-61
2021/12/10 10:23:18;;;;;;;7.13;3.43;;;4.70;99.90;;;;;;5094515;28;20180;-63
2021/12/10 10:25:47;;;;;;;4.03;3.60;;;4.60;99.90;;;;;;5094033;28;20192;-61
2021/12/10 10:28:14;;;;;;;3.80;3.10;;;4.60;99.90;;;;;;5075283;28;20193;-61
2021/12/10 10:31:04;;;;;;;4.50;4.10;;;4.30;99.90;;;;;;5094101;28;20768;-61
2021/12/10 10:33:32;;;;;;;4.10;3.70;;;4.30;99.90;;;;;;5070592;28;20177;-61
2021/12/10 10:36:05;;;;;;;5.50;3.93;;;4.40;99.90;;;;;;5076985;28;20173;-61
2021/12/10 10:38:31;;;;;;;6.03;3.77;;;4.20;99.90;;;;;;5076319;28;20185;-61
2021/12/10 10:41:01;;;;;;;3.30;3.10;;;4.30;99.90;;;;;;5057010;28;20664;-61
2021/12/10 10:43:28;;;;;;;3.70;3.40;;;4.30;99.90;;;;;;5075913;28;20188;-61
2021/12/10 10:45:55;;;;;;;3.83;3.53;;;4.30;99.90;;;;;;5060607;28;20764;-61
2021/12/10 10:48:22;;;;;;;5.33;3.83;;;4.30;99.90;;;;;;5083484;28;20188;-61
2021/12/10 10:51:01;;;;;;;5.90;3.57;;;4.30;99.90;;;;;;5048807;28;20176;-63
2021/12/10 10:53:31;;;;;;;5.83;4.43;;;4.30;99.90;;;;;;5065707;28;20262;-61
2021/12/10 10:56:00;;;;;;;6.87;4.10;;;4.10;99.90;;;;;;5087842;28;20183;-61
2021/12/10 10:58:31;;;;;;;4.13;3.73;;;4.10;99.90;;;;;;5093139;28;20184;-61
2021/12/10 11:01:13;;;;;;;4.47;3.73;;;4.10;99.90;;;;;;5093643;28;20180;-61
2021/12/10 11:03:48;;;;;;;3.40;3.20;;;4.20;99.90;;;;;;5074816;28;20188;-62
2021/12/10 11:06:23;;;;;;;3.83;3.53;;;4.40;99.90;;;;;;5093384;28;20535;-61
2021/12/10 11:08:51;;;;;;;3.90;3.50;;;4.20;99.90;;;;;;5089431;28;20207;-61
2021/12/10 11:11:22;;;;;;;3.37;3.07;;;4.00;99.90;;;;;;5084627;28;20177;-61
2021/12/10 11:13:58;;;;;;;3.43;3.13;;;4.10;99.90;;;;;;5093402;28;20184;-60
2021/12/10 11:16:27;;;;;;;6.03;5.40;;;4.10;99.90;;;;;;5092743;28;20204;-60
2021/12/10 11:19:07;;;;;;;3.60;3.30;;;4.20;99.90;;;;;;5078460;28;20721;-60
2021/12/10 11:21:49;;;;;;;3.47;3.17;;;3.90;99.90;;;;;;5056728;28;22445;-60
2021/12/10 11:24:45;;;;;;;2.97;2.73;;;4.00;99.90;;;;;;5069873;28;20179;-60
2021/12/10 11:27:13;;;;;;;5.13;2.93;;;4.00;99.90;;;;;;5082832;28;20186;-60
2021/12/10 11:29:56;;;;;;;3.80;3.53;;;4.20;99.90;;;;;;5089703;28;20267;-59
2021/12/10 11:32:37;;;;;;;3.97;3.30;;;4.30;99.90;;;;;;5092353;28;20577;-59
2021/12/10 11:35:11;;;;;;;6.93;4.40;;;4.40;99.90;;;;;;5092251;28;20173;-59
2021/12/10 11:37:51;;;;;;;4.93;4.50;;;4.60;99.90;;;;;;5074592;28;20219;-59
2021/12/10 11:40:46;;;;;;;4.30;3.90;;;4.70;99.90;;;;;;5093000;28;20176;-59
2021/12/10 11:43:44;;;;;;;8.10;4.83;;;5.00;99.90;;;;;;5092430;28;20250;-59
2021/12/10 11:47:01;;;;;;;5.20;4.30;;;5.20;99.90;;;;;;5092343;28;20171;-58
2021/12/10 11:49:35;;;;;;;7.00;5.40;;;5.00;99.90;;;;;;5074350;28;20184;-59
2021/12/10 11:52:06;;;;;;;8.27;6.13;;;4.90;99.90;;;;;;5074827;28;20161;-59
2021/12/10 11:54:43;;;;;;;10.50;6.53;;;4.90;99.90;;;;;;5088878;28;20255;-59
2021/12/10 11:57:26;;;;;;;9.57;6.73;;;4.80;99.90;;;;;;5080458;28;20204;-59
2021/12/10 12:00:13;;;;;;;8.73;6.40;;;4.80;99.90;;;;;;5086950;28;20255;-61
2021/12/10 12:02:54;;;;;;;8.53;7.47;;;4.80;99.90;;;;;;5086242;28;20582;-58
2021/12/10 12:05:28;;;;;;;10.53;6.63;;;4.80;99.90;;;;;;5073108;28;20728;-59
2021/12/10 12:08:00;;;;;;;10.77;7.23;;;5.00;99.90;;;;;;5071629;28;20659;-59
2021/12/10 12:10:32;;;;;;;9.80;6.07;;;5.10;99.90;;;;;;5091883;28;20188;-59
2021/12/10 12:13:23;;;;;;;8.47;6.20;;;5.30;99.90;;;;;;5092499;28;20206;-60
2021/12/10 12:16:00;;;;;;;9.80;7.23;;;5.20;99.90;;;;;;5092468;28;20269;-60
2021/12/10 12:18:35;;;;;;;10.93;6.70;;;5.00;99.90;;;;;;5073775;28;20196;-59
2021/12/10 12:26:35;;;;;;;9.30;6.90;;;4.70;99.90;;;;;;5080175;28;20559;-59
2021/12/10 12:29:10;;;;;;;10.07;6.83;;;4.70;99.90;;;;;;5071087;28;20200;-59
2021/12/10 12:31:51;;;;;;;20.07;7.40;;;4.70;99.90;;;;;;5089170;28;20593;-59
2021/12/10 12:34:23;;;;;;;8.90;6.73;;;4.60;99.90;;;;;;5081209;28;20184;-60
2021/12/10 12:36:52;;;;;;;10.93;7.70;;;4.70;99.90;;;;;;5076315;28;20247;-59
2021/12/10 12:39:36;;;;;;;11.60;8.00;;;4.70;99.90;;;;;;5067791;28;20205;-60
2021/12/10 12:42:16;;;;;;;12.47;7.73;;;4.80;99.90;;;;;;5091998;28;20597;-60
2021/12/10 12:44:42;;;;;;;11.07;7.10;;;4.70;99.90;;;;;;5070759;28;20182;-60
2021/12/10 12:47:20;;;;;;;12.10;7.33;;;4.90;99.90;;;;;;5067207;28;20630;-60
2021/12/10 12:49:48;;;;;;;9.77;7.63;;;4.90;99.90;;;;;;5076789;28;20185;-60
2021/12/10 12:52:18;;;;;;;10.63;6.47;;;5.00;99.90;;;;;;5091135;28;20215;-60
2021/12/10 12:55:38;;;;;;;7.50;5.93;;;5.00;99.90;;;;;;5095704;28;20204;-60
2021/12/10 12:58:18;;;;;;;10.30;7.77;;;5.20;99.90;;;;;;5013349;28;20221;-60
2021/12/10 13:00:46;;;;;;;8.60;7.03;;;5.20;99.90;;;;;;5069217;28;20189;-60
2021/12/10 13:03:34;;;;;;;9.57;7.90;;;5.10;99.90;;;;;;5095494;28;20183;-60
2021/12/10 13:06:37;;;;;;;13.63;7.90;;;5.10;99.90;;;;;;5095558;28;20260;-60
2021/12/10 13:09:13;;;;;;;14.30;7.63;;;4.90;99.90;;;;;;5085688;28;20212;-60
2021/12/10 13:11:49;;;;;;;12.90;8.63;;;5.00;99.90;;;;;;5077461;28;20210;-60
2021/12/10 13:14:19;;;;;;;10.33;8.00;;;5.10;99.90;;;;;;5095304;28;20618;-60
2021/12/10 13:16:52;;;;;;;10.63;8.53;;;4.90;99.90;;;;;;5095756;28;20684;-60
2021/12/10 13:19:25;;;;;;;10.17;7.33;;;4.80;99.90;;;;;;5095708;28;20641;-60
2021/12/10 13:21:58;;;;;;;11.60;7.40;;;4.80;99.90;;;;;;5095313;28;20183;-60
2021/12/10 13:24:24;;;;;;;10.77;7.83;;;4.80;99.90;;;;;;5095313;28;20184;-60